Time;durP1;ratioP1;P1;durP2;ratioP2;P2;SDS_P1;SDS_P2;PMS_P1;PMS_P2;Temp;Humidity;BMP_temperature;BMP_pressure;BME280_temperature;BME280_humidity;BME280_pressure;Samples;Min_cycle;Max_cycle;Signal;HPM_P1;HPM_P2
2021/05/30 00:01:59;;;;;;;4.07;1.77;;;;;;;11.33;57.94;99525.75;5086204;28;20035;-48
2021/05/30 00:04:24;;;;;;;3.63;2.20;;;;;;;10.82;57.82;99449.81;5089577;28;20062;-47
2021/05/30 00:06:50;;;;;;;11.13;2.25;;;;;;;11.38;57.34;99533.38;5089133;28;20032;-49
2021/05/30 00:09:16;;;;;;;4.57;1.98;;;;;;;11.29;57.46;99521.66;5089793;28;20534;-44
2021/05/30 00:11:41;;;;;;;4.20;1.80;;;;;;;11.21;57.81;99538.41;5087102;28;20036;-44
2021/05/30 00:14:07;;;;;;;3.10;2.03;;;;;;;11.25;57.82;99526.41;5089295;28;20036;-51
2021/05/30 00:16:33;;;;;;;7.75;1.90;;;;;;;10.77;57.87;99459.13;5089319;28;20090;-46
2021/05/30 00:19:00;;;;;;;4.05;2.40;;;;;;;11.14;58.45;99534.56;5089522;28;20040;-50
2021/05/30 00:21:26;;;;;;;6.10;2.22;;;;;;;11.18;58.60;99536.81;5076842;28;20040;-49
2021/05/30 00:23:51;;;;;;;6.93;2.33;;;;;;;11.14;58.82;99550.66;5067474;28;20047;-47
2021/05/30 00:26:17;;;;;;;3.38;1.83;;;;;;;11.19;58.25;99549.22;5069081;28;20046;-46
2021/05/30 00:28:42;;;;;;;2.75;1.90;;;;;;;10.85;58.49;99497.75;5067827;28;20128;-52
2021/05/30 00:31:08;;;;;;;7.85;1.88;;;;;;;11.06;59.01;99560.19;5069401;28;20025;-47
2021/05/30 00:33:34;;;;;;;6.72;2.50;;;;;;;10.93;59.10;99548.84;5068733;28;20037;-47
2021/05/30 00:35:59;;;;;;;4.45;2.10;;;;;;;10.97;58.45;99539.56;5069237;28;20033;-49
2021/05/30 00:38:25;;;;;;;3.42;1.90;;;;;;;10.88;59.14;99540.38;5067231;28;20036;-48
2021/05/30 00:40:52;;;;;;;4.47;1.80;;;;;;;10.79;59.10;99530.44;5075659;28;20439;-47
2021/05/30 00:43:18;;;;;;;4.15;2.00;;;;;;;10.47;58.92;99476.00;5068305;28;20511;-47
2021/05/30 00:45:45;;;;;;;3.05;1.90;;;;;;;10.75;58.85;99548.63;5068572;28;20032;-47
2021/05/30 00:48:11;;;;;;;2.97;2.00;;;;;;;10.87;58.63;99554.75;5053058;28;20036;-49
2021/05/30 00:50:36;;;;;;;3.78;2.20;;;;;;;10.89;58.02;99558.13;5074702;28;20098;-48
2021/05/30 00:53:02;;;;;;;2.42;2.20;;;;;;;10.73;58.00;99529.13;5072170;28;20044;-49
2021/05/30 00:55:28;;;;;;;3.88;2.13;;;;;;;10.74;57.89;99579.06;5072548;28;20090;-46
2021/05/30 00:57:54;;;;;;;3.38;1.95;;;;;;;10.76;57.96;99561.03;5072380;28;20033;-48
2021/05/30 01:00:20;;;;;;;2.92;2.17;;;;;;;10.04;57.96;99443.03;5074306;28;20041;-47
2021/05/30 01:02:45;;;;;;;3.83;2.28;;;;;;;10.82;58.07;99573.00;5080243;28;20036;-46
2021/05/30 01:05:12;;;;;;;3.45;2.20;;;;;;;10.75;57.90;99581.59;5092324;28;20046;-49
2021/05/30 01:07:42;;;;;;;8.45;2.05;;;;;;;10.80;57.83;99580.34;5092526;28;20032;-50
2021/05/30 01:10:33;;;;;;;6.32;2.20;;;;;;;10.77;57.84;99584.97;5091778;28;20122;-48
2021/05/30 01:13:00;;;;;;;4.97;2.28;;;;;;;10.71;57.87;99585.50;5054270;28;20081;-47
2021/05/30 01:15:28;;;;;;;3.75;2.03;;;;;;;10.65;57.94;99587.84;5072144;28;20036;-45
2021/05/30 01:17:55;;;;;;;3.83;2.15;;;;;;;10.66;57.78;99592.22;5071587;28;20028;-48
2021/05/30 01:20:21;;;;;;;4.53;2.10;;;;;;;10.66;58.18;99589.56;5071675;28;20044;-49
2021/05/30 01:22:48;;;;;;;5.53;2.60;;;;;;;10.16;57.88;99508.03;5086156;28;20036;-49
2021/05/30 01:25:17;;;;;;;2.78;1.90;;;;;;;10.54;58.10;99578.06;5091345;28;20168;-47
2021/05/30 01:27:43;;;;;;;4.60;1.95;;;;;;;10.60;57.63;99609.66;5089525;28;20020;-47
2021/05/30 01:30:10;;;;;;;5.18;1.80;;;;;;;10.57;57.69;99601.88;5091548;28;20055;-46
2021/05/30 01:32:36;;;;;;;2.95;2.17;;;;;;;10.48;57.34;99574.06;5073751;28;20420;-45
2021/05/30 01:35:05;;;;;;;4.93;2.35;;;;;;;10.53;57.28;99590.59;5090314;28;20028;-47
2021/05/30 01:37:30;;;;;;;2.38;2.17;;;;;;;10.39;57.32;99593.53;5091669;28;20069;-46
2021/05/30 01:39:56;;;;;;;4.05;1.92;;;;;;;10.41;57.51;99600.50;5091042;28;20044;-50
2021/05/30 01:42:22;;;;;;;6.18;2.17;;;;;;;10.47;56.87;99601.81;5091966;28;20039;-46
2021/05/30 01:44:48;;;;;;;1.95;1.77;;;;;;;10.42;56.71;99602.22;5091891;28;20032;-48
2021/05/30 01:47:13;;;;;;;5.57;1.85;;;;;;;10.40;57.27;99609.53;5082652;28;20028;-48
2021/05/30 01:49:41;;;;;;;4.65;1.75;;;;;;;10.40;57.06;99624.69;5070589;28;20052;-46
2021/05/30 01:52:07;;;;;;;3.63;1.60;;;;;;;10.44;56.94;99618.13;5071376;28;20063;-47
2021/05/30 01:54:35;;;;;;;3.42;1.70;;;;;;;10.39;56.61;99610.47;5071618;28;20047;-45
2021/05/30 01:57:07;;;;;;;5.63;1.92;;;;;;;9.90;56.49;99537.78;5071254;28;20040;-49
2021/05/30 01:59:33;;;;;;;2.35;1.77;;;;;;;9.89;56.44;99539.63;5071988;28;20406;-49
2021/05/30 02:02:00;;;;;;;3.95;1.65;;;;;;;9.78;56.88;99526.28;5071041;28;20036;-51
2021/05/30 02:04:44;;;;;;;7.63;1.98;;;;;;;10.44;56.08;99624.34;5071005;28;20051;-48
2021/05/30 02:07:11;;;;;;;5.13;1.70;;;;;;;10.39;56.08;99610.47;5070468;28;20097;-48
2021/05/30 02:09:38;;;;;;;4.43;1.77;;;;;;;10.30;55.90;99605.88;5070736;28;20040;-47
2021/05/30 02:12:05;;;;;;;4.55;2.20;;;;;;;10.38;55.76;99614.13;5072181;28;20055;-46
2021/05/30 02:14:31;;;;;;;4.32;2.00;;;;;;;10.28;55.85;99597.13;5070821;28;20093;-46
2021/05/30 02:16:57;;;;;;;6.40;4.07;;;;;;;10.45;55.61;99647.44;5070427;28;20111;-45
2021/05/30 02:19:23;;;;;;;5.22;3.90;;;;;;;10.27;55.53;99600.78;5070297;28;20054;-45
2021/05/30 02:21:51;;;;;;;4.40;3.55;;;;;;;10.05;55.67;99581.16;5069822;28;20029;-47
2021/05/30 02:24:19;;;;;;;3.42;2.10;;;;;;;10.13;55.62;99583.19;5068486;28;20457;-47
2021/05/30 02:26:44;;;;;;;4.53;2.03;;;;;;;9.82;55.74;99533.06;5068861;28;20064;-48
2021/05/30 02:29:17;;;;;;;3.65;1.90;;;;;;;10.37;55.51;99604.41;5070414;28;20493;-45
2021/05/30 02:31:42;;;;;;;2.15;1.60;;;;;;;10.56;55.27;99638.53;5070230;28;20083;-50
2021/05/30 02:34:08;;;;;;;7.40;2.00;;;;;;;10.59;55.19;99638.28;5070324;28;20143;-48
2021/05/30 02:36:33;;;;;;;2.05;1.80;;;;;;;10.58;55.06;99622.31;5071827;28;20037;-51
2021/05/30 02:38:59;;;;;;;3.00;1.80;;;;;;;10.60;54.99;99625.72;5070400;28;20039;-49
2021/05/30 02:41:24;;;;;;;2.08;1.60;;;;;;;10.68;54.64;99617.91;5070076;28;20064;-46
2021/05/30 02:43:50;;;;;;;4.15;1.63;;;;;;;10.83;54.72;99644.34;5070128;28;20039;-50
2021/05/30 02:46:16;;;;;;;2.60;1.70;;;;;;;10.94;54.50;99652.34;5070186;28;20040;-46
2021/05/30 02:48:41;;;;;;;2.25;1.70;;;;;;;10.57;54.24;99580.47;5073640;28;20436;-46
2021/05/30 02:51:07;;;;;;;2.70;1.88;;;;;;;11.05;53.86;99648.75;5070157;28;20436;-51
2021/05/30 02:53:33;;;;;;;4.65;1.90;;;;;;;11.10;53.65;99640.31;5069948;28;20048;-48
2021/05/30 02:56:01;;;;;;;7.07;1.60;;;;;;;10.73;53.99;99570.16;5068913;28;20033;-50
2021/05/30 02:58:29;;;;;;;2.88;1.50;;;;;;;11.28;53.39;99660.16;5069204;28;20416;-50
2021/05/30 03:00:55;;;;;;;6.07;2.20;;;;;;;11.29;52.78;99667.19;5071136;28;20028;-52
2021/05/30 03:03:35;;;;;;;7.97;1.83;;;;;;;11.33;53.25;99673.16;5069999;28;20032;-52
2021/05/30 03:06:01;;;;;;;9.40;1.83;;;;;;;11.37;52.68;99681.78;5068188;28;20105;-50
2021/05/30 03:08:26;;;;;;;3.95;1.75;;;;;;;11.36;52.59;99677.41;5069581;28;20036;-50
2021/05/30 03:10:51;;;;;;;5.90;1.55;;;;;;;11.31;52.62;99657.19;5069521;28;20404;-52
2021/05/30 03:13:17;;;;;;;4.18;1.80;;;;;;;11.47;52.99;99674.63;5072722;28;20468;-52
2021/05/30 03:15:42;;;;;;;4.82;1.60;;;;;;;11.63;52.23;99683.06;5089227;28;20123;-52
2021/05/30 03:18:08;;;;;;;8.63;1.70;;;;;;;11.62;52.30;99672.44;5090061;28;20127;-48
2021/05/30 03:20:34;;;;;;;5.97;1.70;;;;;;;11.75;52.26;99677.56;5089666;28;20039;-50
2021/05/30 03:23:00;;;;;;;1.77;1.60;;;;;;;11.74;51.93;99657.09;5089404;28;20677;-46
2021/05/30 03:25:25;;;;;;;4.97;1.75;;;;;;;11.98;51.34;99677.38;5071496;28;20121;-47
2021/05/30 03:27:51;;;;;;;3.85;1.80;;;;;;;12.11;51.03;99683.38;5069800;28;20417;-50
2021/05/30 03:30:17;;;;;;;1.77;1.67;;;;;;;12.06;50.66;99680.28;5068443;28;20454;-46
2021/05/30 03:32:43;;;;;;;3.78;2.30;;;;;;;11.87;50.88;99644.31;5068712;28;20393;-50
2021/05/30 03:35:09;;;;;;;3.10;2.38;;;;;;;12.05;51.12;99683.91;5076880;28;20036;-46
2021/05/30 03:37:35;;;;;;;4.25;2.13;;;;;;;11.97;50.80;99670.31;5089751;28;20515;-48
2021/05/30 03:40:06;;;;;;;5.85;1.90;;;;;;;11.95;51.12;99673.16;5089845;28;20035;-48
2021/05/30 03:42:36;;;;;;;3.95;1.65;;;;;;;11.76;51.30;99655.13;5089481;28;20101;-49
2021/05/30 03:45:01;;;;;;;3.42;1.83;;;;;;;11.84;51.14;99674.09;5085619;28;20117;-45
2021/05/30 03:47:27;;;;;;;3.85;1.60;;;;;;;11.89;51.09;99682.59;5069530;28;20556;-49
2021/05/30 03:49:53;;;;;;;5.55;1.70;;;;;;;11.92;50.92;99674.25;5069403;28;20033;-46
2021/05/30 03:52:18;;;;;;;2.85;1.67;;;;;;;11.84;50.69;99665.19;5068944;28;20512;-47
2021/05/30 03:54:44;;;;;;;4.10;1.85;;;;;;;12.11;50.68;99686.06;5067758;28;20044;-49
2021/05/30 03:57:10;;;;;;;4.13;1.75;;;;;;;12.17;50.32;99677.47;5089296;28;20040;-48
2021/05/30 03:59:36;;;;;;;4.10;1.65;;;;;;;12.33;50.15;99681.47;5089888;28;20554;-45
2021/05/30 04:02:02;;;;;;;2.08;1.80;;;;;;;12.52;49.71;99690.50;5070643;28;20825;-46
2021/05/30 04:04:28;;;;;;;1.77;1.67;;;;;;;12.66;49.11;99673.13;5088908;28;20096;-45
2021/05/30 04:06:53;;;;;;;3.42;1.52;;;;;;;12.68;48.99;99680.06;5067543;28;20025;-50
2021/05/30 04:09:19;;;;;;;2.53;1.52;;;;;;;12.66;48.53;99665.94;5069146;28;20036;-49
2021/05/30 04:11:44;;;;;;;3.47;1.90;;;;;;;13.01;48.10;99702.09;5068907;28;20416;-50
2021/05/30 04:14:10;;;;;;;3.75;1.75;;;;;;;13.07;47.80;99676.50;5068871;28;20040;-49
2021/05/30 04:16:35;;;;;;;2.50;1.73;;;;;;;13.31;47.21;99676.03;5072076;28;20139;-50
2021/05/30 04:19:01;;;;;;;1.67;1.50;;;;;;;12.99;47.18;99610.03;5088957;28;20123;-50
2021/05/30 04:21:26;;;;;;;2.85;1.48;;;;;;;13.60;46.60;99680.50;5088650;28;20039;-45
2021/05/30 04:23:52;;;;;;;1.60;1.50;;;;;;;13.68;46.31;99686.97;5092665;28;20036;-52
2021/05/30 04:26:17;;;;;;;3.53;1.50;;;;;;;13.75;46.39;99670.09;5091808;28;20064;-49
2021/05/30 04:28:44;;;;;;;3.88;1.67;;;;;;;13.32;46.13;99578.25;5092279;28;20036;-48
2021/05/30 04:31:10;;;;;;;2.88;1.55;;;;;;;13.94;45.95;99654.88;5093042;28;20089;-49
2021/05/30 04:33:35;;;;;;;4.50;1.52;;;;;;;14.33;45.39;99678.00;5091194;28;20489;-47
2021/05/30 04:36:01;;;;;;;3.53;1.42;;;;;;;14.45;44.72;99666.00;5080810;28;20059;-48
2021/05/30 04:38:26;;;;;;;9.13;1.80;;;;;;;14.63;44.41;99676.81;5074310;28;20043;-49
2021/05/30 04:40:52;;;;;;;3.60;1.40;;;;;;;14.76;44.23;99684.53;5092924;28;20032;-46
2021/05/30 04:43:17;;;;;;;2.92;1.30;;;;;;;14.77;43.70;99661.13;5092711;28;20391;-47
2021/05/30 04:45:43;;;;;;;2.03;1.70;;;;;;;14.88;43.29;99670.81;5091138;28;20510;-43
2021/05/30 04:48:09;;;;;;;2.78;1.50;;;;;;;15.25;43.14;99696.72;5074948;28;20055;-49
2021/05/30 04:50:35;;;;;;;2.88;1.45;;;;;;;15.16;42.64;99658.06;5092148;28;20067;-48
2021/05/30 04:53:00;;;;;;;1.55;1.25;;;;;;;15.28;41.97;99684.75;5092389;28;20132;-46
2021/05/30 04:55:26;;;;;;;4.75;1.60;;;;;;;15.12;42.29;99680.09;5083914;28;20536;-45
2021/05/30 04:57:51;;;;;;;4.85;1.58;;;;;;;15.13;42.65;99681.78;5072262;28;20459;-48
2021/05/30 05:00:17;;;;;;;3.65;1.52;;;;;;;15.16;42.22;99682.31;5071619;28;20039;-48
2021/05/30 05:02:43;;;;;;;1.75;1.30;;;;;;;15.11;42.39;99676.56;5072136;28;20024;-46
2021/05/30 05:05:12;;;;;;;3.13;1.30;;;;;;;15.09;41.68;99707.38;5072477;28;20039;-46
2021/05/30 05:07:41;;;;;;;4.18;1.60;;;;;;;14.84;42.53;99699.06;5071972;28;20485;-45
2021/05/30 05:10:08;;;;;;;1.75;1.50;;;;;;;14.45;43.23;99690.25;5070370;28;20473;-47
2021/05/30 05:12:34;;;;;;;3.55;2.25;;;;;;;14.45;43.55;99711.78;5071719;28;20047;-47
2021/05/30 05:15:01;;;;;;;4.07;2.58;;;;;;;14.34;43.87;99710.16;5071812;28;20032;-47
2021/05/30 05:17:27;;;;;;;3.35;2.22;;;;;;;14.27;43.94;99710.94;5083304;28;20051;-50
2021/05/30 05:19:53;;;;;;;4.20;1.80;;;;;;;14.05;44.52;99678.88;5071563;28;20040;-51
2021/05/30 05:22:19;;;;;;;3.28;1.60;;;;;;;14.07;44.50;99711.03;5070527;28;20036;-49
2021/05/30 05:24:44;;;;;;;8.90;2.25;;;;;;;13.90;45.25;99700.06;5072449;28;20029;-48
2021/05/30 05:27:10;;;;;;;4.63;2.70;;;;;;;13.86;45.47;99706.75;5069441;28;20070;-45
2021/05/30 05:29:35;;;;;;;4.40;1.80;;;;;;;13.74;44.96;99670.25;5071436;28;20128;-50
2021/05/30 05:32:01;;;;;;;2.55;1.70;;;;;;;13.53;44.83;99641.75;5071634;28;20083;-47
2021/05/30 05:34:27;;;;;;;7.32;1.90;;;;;;;13.74;45.27;99719.53;5071560;28;20036;-50
2021/05/30 05:36:52;;;;;;;2.55;1.67;;;;;;;13.52;46.28;99726.13;5071570;28;20032;-51
2021/05/30 05:39:18;;;;;;;4.68;1.45;;;;;;;13.46;46.54;99732.06;5090899;28;20433;-53
2021/05/30 05:41:44;;;;;;;4.05;1.70;;;;;;;13.60;46.08;99723.53;5091752;28;20048;-51
2021/05/30 05:44:09;;;;;;;3.05;1.60;;;;;;;13.09;45.71;99622.63;5092072;28;20036;-47
2021/05/30 05:46:35;;;;;;;3.15;1.70;;;;;;;13.74;45.45;99732.13;5091230;28;20550;-47
2021/05/30 05:49:00;;;;;;;3.20;1.60;;;;;;;13.72;45.50;99742.19;5077995;28;20059;-45
2021/05/30 05:51:26;;;;;;;5.07;1.60;;;;;;;13.55;45.60;99735.72;5070889;28;20420;-49
2021/05/30 05:53:51;;;;;;;6.07;1.90;;;;;;;13.44;45.91;99739.44;5071960;28;20040;-45
2021/05/30 05:56:17;;;;;;;8.73;1.85;;;;;;;13.22;46.46;99741.41;5071588;28;20580;-50
2021/05/30 05:58:42;;;;;;;5.32;1.90;;;;;;;12.92;47.09;99719.94;5071325;28;20118;-46
2021/05/30 06:01:09;;;;;;;5.65;1.80;;;;;;;13.13;47.29;99736.91;5070305;28;20044;-51
2021/05/30 06:03:36;;;;;;;5.60;1.98;;;;;;;13.20;47.03;99746.09;5069955;28;20036;-48
2021/05/30 06:06:03;;;;;;;4.90;2.20;;;;;;;13.26;46.82;99750.06;5068896;28;20032;-53
2021/05/30 06:08:29;;;;;;;3.47;1.58;;;;;;;13.28;46.35;99745.38;5071603;28;20890;-46
2021/05/30 06:10:56;;;;;;;3.25;1.98;;;;;;;13.18;46.69;99762.38;5070785;28;20132;-50
2021/05/30 06:13:22;;;;;;;3.80;1.58;;;;;;;12.96;47.01;99743.84;5070160;28;20052;-47
2021/05/30 06:15:48;;;;;;;4.80;1.85;;;;;;;13.12;46.99;99762.91;5071141;28;20040;-47
2021/05/30 06:18:15;;;;;;;6.03;2.20;;;;;;;13.23;46.76;99748.47;5070160;28;20453;-46
2021/05/30 06:20:43;;;;;;;3.80;1.80;;;;;;;13.34;46.82;99761.78;5073889;28;20097;-46
2021/05/30 06:23:09;;;;;;;4.90;1.70;;;;;;;13.25;46.13;99714.25;5070208;28;20121;-46
2021/05/30 06:25:35;;;;;;;2.42;1.50;;;;;;;13.71;45.06;99762.00;5070018;28;20528;-51
2021/05/30 06:28:01;;;;;;;3.03;1.48;;;;;;;13.54;45.29;99761.78;5070736;28;20404;-45
2021/05/30 06:30:36;;;;;;;5.85;1.55;;;;;;;13.51;44.86;99771.97;5071122;28;20122;-49
2021/05/30 06:33:02;;;;;;;7.93;1.40;;;;;;;13.42;45.56;99776.34;5069869;28;20123;-45
2021/05/30 06:35:29;;;;;;;5.72;1.60;;;;;;;13.30;45.27;99738.88;5070372;28;20040;-47
2021/05/30 06:37:55;;;;;;;3.15;1.52;;;;;;;13.52;45.06;99784.44;5070146;28;20039;-48
2021/05/30 06:40:20;;;;;;;3.42;1.60;;;;;;;12.96;45.04;99690.09;5071095;28;20331;-48
2021/05/30 06:42:47;;;;;;;2.17;1.35;;;;;;;13.51;45.45;99794.38;5070468;28;20055;-47
2021/05/30 06:45:13;;;;;;;4.45;1.85;;;;;;;13.47;45.49;99777.66;5068925;28;20121;-45
2021/05/30 06:47:38;;;;;;;3.00;1.40;;;;;;;13.33;44.87;99752.03;5069722;28;20033;-46
2021/05/30 06:50:05;;;;;;;5.47;1.60;;;;;;;13.63;44.92;99782.44;5069635;28;20032;-48
2021/05/30 06:52:31;;;;;;;4.53;1.83;;;;;;;13.61;44.53;99767.41;5087439;28;20040;-47
2021/05/30 06:54:57;;;;;;;4.55;1.70;;;;;;;13.59;44.55;99758.66;5089670;28;20058;-48
2021/05/30 06:57:23;;;;;;;3.30;1.67;;;;;;;13.67;44.55;99785.69;5089773;28;20502;-49
2021/05/30 06:59:48;;;;;;;6.22;1.63;;;;;;;13.10;44.04;99689.66;5090389;28;20040;-48
2021/05/30 07:02:15;;;;;;;4.68;1.73;;;;;;;12.85;45.10;99696.47;5080971;28;20452;-49
2021/05/30 07:04:41;;;;;;;1.63;1.40;;;;;;;13.53;44.91;99808.50;5084682;28;20035;-45
2021/05/30 07:07:06;;;;;;;5.18;1.40;;;;;;;13.67;44.50;99815.28;5071471;28;20125;-43
2021/05/30 07:09:32;;;;;;;2.60;1.58;;;;;;;13.42;44.40;99776.34;5089728;28;20070;-48
2021/05/30 07:11:57;;;;;;;2.28;1.40;;;;;;;13.37;44.39;99740.97;5086982;28;20032;-46
2021/05/30 07:14:23;;;;;;;3.03;1.60;;;;;;;13.75;43.82;99817.25;5086932;28;20184;-50
2021/05/30 07:16:48;;;;;;;4.10;1.60;;;;;;;13.69;44.65;99825.88;5087949;28;20404;-47
2021/05/30 07:19:14;;;;;;;3.17;1.55;;;;;;;13.57;44.47;99796.47;5089818;28;20119;-48
2021/05/30 07:21:39;;;;;;;4.20;2.08;;;;;;;13.66;44.39;99812.72;5087752;28;20040;-50
2021/05/30 07:24:05;;;;;;;2.72;1.42;;;;;;;13.92;44.37;99808.41;5089349;28;20524;-48
2021/05/30 07:26:31;;;;;;;2.75;1.60;;;;;;;13.95;44.10;99801.03;5071516;28;20123;-46
2021/05/30 07:28:57;;;;;;;3.13;1.40;;;;;;;14.33;44.09;99812.66;5089815;28;20036;-47
2021/05/30 07:31:22;;;;;;;3.83;1.77;;;;;;;14.52;43.50;99814.41;5087870;28;20085;-48
2021/05/30 07:33:49;;;;;;;3.60;2.45;;;;;;;14.52;42.50;99798.25;5060985;28;20040;-48
2021/05/30 07:36:15;;;;;;;6.72;2.20;;;;;;;14.48;42.66;99819.28;5069133;28;20033;-50
2021/05/30 07:38:40;;;;;;;3.80;1.90;;;;;;;14.11;43.03;99776.22;5068599;28;20117;-52
2021/05/30 07:41:06;;;;;;;4.15;1.67;;;;;;;14.22;43.44;99819.09;5069986;28;20032;-49
2021/05/30 07:43:32;;;;;;;9.20;1.85;;;;;;;14.25;42.50;99823.34;5086758;28;20040;-52
2021/05/30 07:45:57;;;;;;;9.32;1.90;;;;;;;14.08;42.53;99812.34;5089113;28;20115;-48
2021/05/30 07:48:23;;;;;;;3.28;1.60;;;;;;;13.98;42.72;99811.50;5090249;28;20039;-52
2021/05/30 07:50:48;;;;;;;4.93;1.60;;;;;;;14.13;42.04;99820.81;5089379;28;20097;-53
2021/05/30 07:53:15;;;;;;;5.88;1.65;;;;;;;13.83;43.09;99828.13;5066971;28;20139;-50
2021/05/30 07:55:41;;;;;;;3.67;1.40;;;;;;;13.85;43.73;99830.66;5068718;28;20051;-52
2021/05/30 07:58:07;;;;;;;3.83;1.58;;;;;;;13.69;43.29;99777.47;5073230;28;20089;-49
2021/05/30 08:00:32;;;;;;;3.33;0.98;;;;;;;14.41;42.05;99822.72;5073036;28;20483;-50
2021/05/30 08:02:58;;;;;;;2.38;1.63;;;;;;;14.40;41.80;99832.63;5077950;28;20028;-54
2021/05/30 08:05:23;;;;;;;5.82;1.85;;;;;;;14.29;42.40;99813.97;5079502;28;20501;-51
2021/05/30 08:07:50;;;;;;;3.70;1.30;;;;;;;14.64;41.80;99836.63;5072657;28;20028;-49
2021/05/30 08:10:17;;;;;;;3.65;1.40;;;;;;;14.81;41.44;99840.38;5072875;28;20047;-51
2021/05/30 08:12:43;;;;;;;3.95;1.70;;;;;;;14.99;40.97;99824.25;5073259;28;20052;-52
2021/05/30 08:15:10;;;;;;;5.85;1.60;;;;;;;15.23;40.10;99838.97;5090461;28;20479;-48
2021/05/30 08:17:37;;;;;;;5.10;1.55;;;;;;;15.87;39.27;99832.56;5092487;28;20387;-54
2021/05/30 08:20:05;;;;;;;3.67;2.03;;;;;;;16.54;36.75;99833.81;5074505;28;20050;-55
2021/05/30 08:22:31;;;;;;;2.60;1.80;;;;;;;16.86;37.03;99834.91;5092617;28;20051;-55
2021/05/30 08:24:56;;;;;;;2.97;1.70;;;;;;;17.30;35.98;99833.88;5091373;28;20036;-51
2021/05/30 08:27:21;;;;;;;4.38;1.52;;;;;;;17.76;34.71;99826.09;5091647;28;20597;-50
2021/05/30 08:29:47;;;;;;;5.55;1.60;;;;;;;17.97;34.42;99823.84;5075819;28;20408;-52
2021/05/30 08:32:14;;;;;;;4.70;1.60;;;;;;;17.87;34.74;99818.59;5072358;28;20040;-50
2021/05/30 08:34:40;;;;;;;6.20;2.50;;;;;;;17.27;33.92;99761.16;5070957;28;20930;-51
2021/05/30 08:37:05;;;;;;;3.95;1.88;;;;;;;17.48;34.46;99818.31;5082031;28;20028;-53
2021/05/30 08:39:31;;;;;;;4.35;1.73;;;;;;;17.77;33.53;99806.09;5092112;28;20032;-49
2021/05/30 08:41:57;;;;;;;4.28;2.35;;;;;;;17.96;32.44;99835.69;5092362;28;20043;-53
2021/05/30 08:44:23;;;;;;;5.35;1.60;;;;;;;17.22;34.04;99807.63;5090297;28;20146;-51
2021/05/30 08:46:48;;;;;;;5.47;1.60;;;;;;;17.42;34.19;99839.78;5081062;28;20031;-48
2021/05/30 08:49:14;;;;;;;12.38;1.95;;;;;;;17.75;33.61;99835.22;5092029;28;20448;-48
2021/05/30 08:51:41;;;;;;;9.05;1.50;;;;;;;18.29;32.56;99827.50;5091897;28;20357;-52
2021/05/30 08:54:14;;;;;;;5.13;1.52;;;;;;;18.76;32.04;99837.47;5092454;28;20457;-52
2021/05/30 08:56:42;;;;;;;2.58;1.13;;;;;;;19.17;31.36;99814.75;5091001;28;20032;-49
2021/05/30 08:59:13;;;;;;;6.85;1.83;;;;;;;19.10;29.38;99821.88;5074112;28;20472;-46
2021/05/30 09:01:46;;;;;;;3.78;1.30;;;;;;;18.80;30.61;99808.16;5091992;28;20032;-51
2021/05/30 09:04:12;;;;;;;6.35;1.80;;;;;;;18.88;30.62;99827.06;5092470;28;20126;-51
2021/05/30 09:06:40;;;;;;;4.05;1.30;;;;;;;19.08;30.60;99826.66;5090683;28;20067;-51
2021/05/30 09:09:11;;;;;;;2.80;1.30;;;;;;;19.31;29.72;99826.69;5091430;28;20040;-51
2021/05/30 09:11:41;;;;;;;9.40;1.65;;;;;;;19.38;29.22;99823.22;5073337;28;20036;-53
2021/05/30 09:14:14;;;;;;;3.30;1.60;;;;;;;19.21;29.75;99824.19;5092749;28;20044;-49
2021/05/30 09:16:54;;;;;;;5.50;0.98;;;;;;;19.30;29.18;99827.72;5090217;28;20050;-53
2021/05/30 09:19:35;;;;;;;3.55;1.33;;;;;;;19.56;29.17;99837.34;5091782;28;20031;-51
2021/05/30 09:22:30;;;;;;;4.63;1.20;;;;;;;19.69;28.81;99831.28;5091387;28;20043;-50
2021/05/30 09:25:01;;;;;;;1.95;1.23;;;;;;;19.55;28.79;99841.09;5092595;28;20032;-47
2021/05/30 09:27:27;;;;;;;8.23;1.35;;;;;;;19.42;28.82;99836.28;5089768;28;20487;-48
2021/05/30 09:30:16;;;;;;;5.47;1.27;;;;;;;19.40;28.64;99832.03;5089916;28;20044;-55
2021/05/30 09:33:15;;;;;;;6.70;1.40;;;;;;;19.25;27.61;99835.53;5091839;28;20463;-51
2021/05/30 09:35:40;;;;;;;3.80;1.55;;;;;;;19.16;28.87;99829.31;5091844;28;20032;-50
2021/05/30 09:38:14;;;;;;;4.57;1.25;;;;;;;19.32;28.71;99843.78;5085819;28;20504;-52
2021/05/30 09:40:48;;;;;;;6.93;1.35;;;;;;;19.33;27.35;99834.63;5070977;28;20123;-51
2021/05/30 09:43:15;;;;;;;4.32;1.45;;;;;;;19.16;28.12;99837.44;5073137;28;20036;-51
2021/05/30 09:45:56;;;;;;;4.70;1.30;;;;;;;19.04;27.92;99845.16;5073989;28;20040;-50
2021/05/30 09:48:21;;;;;;;8.40;1.60;;;;;;;19.10;28.16;99840.06;5078731;28;20952;-48
2021/05/30 09:51:02;;;;;;;3.00;1.27;;;;;;;19.13;28.25;99820.69;5086691;28;20048;-48
2021/05/30 09:53:55;;;;;;;4.13;1.48;;;;;;;19.50;27.82;99848.91;5078137;28;20101;-48
2021/05/30 09:56:36;;;;;;;4.68;1.50;;;;;;;19.34;27.22;99779.31;5071408;28;20171;-48
2021/05/30 09:59:11;;;;;;;3.17;1.10;;;;;;;19.46;27.11;99853.03;5072210;28;20086;-52
2021/05/30 10:01:51;;;;;;;3.67;1.27;;;;;;;19.39;27.25;99835.78;5063194;28;20087;-51
2021/05/30 10:04:18;;;;;;;8.27;1.50;;;;;;;19.07;27.15;99833.97;5083563;28;20040;-48
2021/05/30 10:06:44;;;;;;;9.05;1.20;;;;;;;18.86;27.20;99825.59;5072636;28;20052;-48
2021/05/30 10:09:10;;;;;;;5.90;1.10;;;;;;;18.69;27.39;99836.50;5076818;28;20106;-48
2021/05/30 10:11:38;;;;;;;5.25;1.67;;;;;;;18.83;27.10;99848.47;5080486;28;20028;-55
2021/05/30 10:14:04;;;;;;;4.05;1.52;;;;;;;18.76;27.19;99870.03;5068191;28;20445;-51
2021/05/30 10:16:30;;;;;;;2.53;1.33;;;;;;;18.77;26.35;99833.75;5070657;28;20048;-50
2021/05/30 10:19:03;;;;;;;9.25;1.30;;;;;;;19.06;26.17;99848.56;5070279;28;20059;-49
2021/05/30 10:21:30;;;;;;;4.07;1.10;;;;;;;19.25;26.81;99842.84;5083995;28;20042;-54
2021/05/30 10:23:58;;;;;;;2.28;1.00;;;;;;;19.36;26.53;99851.41;5090804;28;20039;-51
2021/05/30 10:26:24;;;;;;;4.35;1.25;;;;;;;19.39;26.14;99852.91;5090762;28;20365;-53
2021/05/30 10:29:07;;;;;;;5.85;0.95;;;;;;;19.20;25.86;99824.38;5088638;28;20499;-53
2021/05/30 10:31:35;;;;;;;4.07;0.95;;;;;;;19.20;24.90;99844.22;5090983;28;20039;-53
2021/05/30 10:34:10;;;;;;;4.72;1.00;;;;;;;18.84;25.35;99847.44;5090842;28;20028;-49
2021/05/30 10:36:42;;;;;;;7.03;1.20;;;;;;;18.60;26.20;99851.97;5088978;28;20040;-52
2021/05/30 10:39:32;;;;;;;6.75;0.90;;;;;;;18.93;26.60;99838.25;5087188;28;20065;-56
2021/05/30 10:42:16;;;;;;;6.35;1.10;;;;;;;19.23;25.20;99845.72;5084914;28;20085;-49
2021/05/30 10:45:14;;;;;;;12.63;2.28;;;;;;;19.03;25.49;99859.75;5090792;28;20031;-52
2021/05/30 10:47:43;;;;;;;2.78;1.00;;;;;;;18.72;25.35;99865.97;5090399;28;20036;-48
2021/05/30 10:50:11;;;;;;;5.22;1.23;;;;;;;18.40;25.61;99867.81;5088675;28;20506;-55
2021/05/30 10:52:39;;;;;;;2.33;1.10;;;;;;;18.28;25.89;99858.34;5090887;28;20389;-54
2021/05/30 10:55:16;;;;;;;4.10;1.05;;;;;;;18.17;25.92;99856.84;5090290;28;20488;-58
2021/05/30 10:57:49;;;;;;;9.02;1.17;;;;;;;18.12;25.97;99835.69;5090402;28;20419;-54
2021/05/30 11:00:18;;;;;;;5.45;1.17;;;;;;;18.41;26.24;99861.38;5087513;28;20024;-52
2021/05/30 11:03:08;;;;;;;2.67;1.20;;;;;;;18.64;26.69;99863.31;5069818;28;20036;-55
2021/05/30 11:05:51;;;;;;;4.78;1.40;;;;;;;18.45;25.81;99830.16;5069759;28;20046;-47
2021/05/30 11:08:32;;;;;;;3.22;0.85;;;;;;;18.59;26.17;99876.56;5070186;28;20102;-54
2021/05/30 11:11:24;;;;;;;3.90;1.10;;;;;;;18.47;25.58;99887.75;5071347;28;20040;-52
2021/05/30 11:13:55;;;;;;;3.67;1.20;;;;;;;18.42;25.65;99883.88;5069333;28;20077;-48
2021/05/30 11:16:28;;;;;;;3.83;1.02;;;;;;;18.53;26.19;99874.53;5069776;28;20041;-51
2021/05/30 11:19:07;;;;;;;4.55;1.20;;;;;;;18.83;25.47;99878.31;5070309;28;20032;-51
2021/05/30 11:21:38;;;;;;;3.70;1.05;;;;;;;19.05;25.56;99879.44;5071283;28;20101;-51
2021/05/30 11:24:09;;;;;;;4.03;1.10;;;;;;;18.93;25.32;99867.25;5070301;28;20036;-50
2021/05/30 11:26:35;;;;;;;2.10;0.98;;;;;;;18.66;26.03;99882.97;5069081;28;20091;-51
2021/05/30 11:29:03;;;;;;;7.80;1.35;;;;;;;18.64;26.28;99876.88;5088286;28;20040;-52
2021/05/30 11:31:29;;;;;;;1.95;1.20;;;;;;;18.86;26.18;99879.84;5087764;28;20036;-52
2021/05/30 11:34:00;;;;;;;3.67;1.15;;;;;;;18.98;25.79;99869.44;5073122;28;20507;-47
2021/05/30 11:36:30;;;;;;;3.85;1.00;;;;;;;18.81;25.36;99880.34;5068758;28;20036;-51
2021/05/30 11:39:05;;;;;;;3.22;0.85;;;;;;;18.54;25.00;99881.63;5078347;28;20028;-51